createdAt,value
2022-09-26T00:00:40.476Z,1005.07
2022-09-26T00:01:40.626Z,1005.08
2022-09-26T00:02:40.577Z,1005.05
2022-09-26T00:03:40.553Z,1005.08
2022-09-26T00:04:40.577Z,1005.11
2022-09-26T00:05:40.603Z,1005.14
2022-09-26T00:06:40.626Z,1005.07
2022-09-26T00:07:40.658Z,1005.10
2022-09-26T00:08:40.697Z,1005.08
2022-09-26T00:09:40.706Z,1005.05
2022-09-26T00:10:40.729Z,1005.02
2022-09-26T00:11:40.755Z,1005.03
2022-09-26T00:12:40.778Z,1005.03
2022-09-26T00:13:40.807Z,1005.04
2022-09-26T00:14:40.829Z,1005.03
2022-09-26T00:15:40.856Z,1004.99
2022-09-26T00:16:40.924Z,1004.94
2022-09-26T00:17:40.910Z,1004.90
2022-09-26T00:18:40.930Z,1004.91
2022-09-26T00:19:40.956Z,1004.86
2022-09-26T00:20:40.981Z,1004.81
2022-09-26T00:21:41.008Z,1004.81
2022-09-26T00:22:41.029Z,1004.85
2022-09-26T00:23:41.057Z,1004.84
2022-09-26T00:24:41.101Z,1004.87
2022-09-26T00:25:41.108Z,1004.85
2022-09-26T00:26:41.132Z,1004.84
2022-09-26T00:27:41.158Z,1004.85
2022-09-26T00:28:41.182Z,1004.79
2022-09-26T00:29:41.209Z,1004.78
2022-09-26T00:30:41.301Z,1004.78
2022-09-26T00:31:41.258Z,1004.77
2022-09-26T00:32:41.287Z,1004.78
2022-09-26T00:33:41.312Z,1004.78
2022-09-26T00:34:41.332Z,1004.76
2022-09-26T00:35:41.358Z,1004.75
2022-09-26T00:36:41.383Z,1004.78
2022-09-26T00:37:41.411Z,1004.78
2022-09-26T00:38:41.433Z,1004.76
2022-09-26T00:39:41.459Z,1004.79
2022-09-26T00:40:41.578Z,1004.73
2022-09-26T00:41:41.510Z,1004.73
2022-09-26T00:42:41.536Z,1004.72
2022-09-26T00:43:41.560Z,1004.68
2022-09-26T00:44:41.585Z,1004.66
2022-09-26T00:45:41.693Z,1004.67
2022-09-26T00:46:41.637Z,1004.62
2022-09-26T00:47:41.662Z,1004.51
2022-09-26T00:48:41.686Z,1004.49
2022-09-26T00:49:41.712Z,1004.42
2022-09-26T00:50:41.735Z,1004.43
2022-09-26T00:51:41.762Z,1004.38
2022-09-26T00:52:41.788Z,1004.34
2022-09-26T00:53:41.814Z,1004.32
2022-09-26T00:54:41.837Z,1004.35
2022-09-26T00:55:41.862Z,1004.30
2022-09-26T00:56:41.994Z,1004.32
2022-09-26T00:57:41.929Z,1004.33
2022-09-26T00:58:41.936Z,1004.31
2022-09-26T00:59:41.963Z,1004.29
2022-09-26T01:00:42.511Z,1004.26
2022-09-26T01:01:42.222Z,1004.27
2022-09-26T01:02:42.126Z,1004.20
2022-09-26T01:03:42.065Z,1004.21
2022-09-26T01:04:42.089Z,1004.19
2022-09-26T01:05:42.122Z,1004.19
2022-09-26T01:06:42.138Z,1004.20
2022-09-26T01:07:42.165Z,1004.17
2022-09-26T01:08:42.189Z,1004.22
2022-09-26T01:09:42.216Z,1004.24
2022-09-26T01:10:42.291Z,1004.26
2022-09-26T01:11:42.264Z,1004.20
2022-09-26T01:12:42.309Z,1004.13
2022-09-26T01:13:42.318Z,1004.16
2022-09-26T01:14:42.542Z,1004.13
2022-09-26T01:15:42.367Z,1004.13
2022-09-26T01:16:42.493Z,1004.15
2022-09-26T01:17:42.419Z,1004.16
2022-09-26T01:18:42.441Z,1004.20
2022-09-26T01:19:42.467Z,1004.17
2022-09-26T01:21:55.110Z,1004.13
2022-09-26T01:22:55.135Z,1004.13
2022-09-26T01:23:55.156Z,1004.09
2022-09-26T01:24:55.186Z,1004.09
2022-09-26T01:25:55.210Z,1004.04
2022-09-26T01:26:55.236Z,1004.08
2022-09-26T01:27:55.278Z,1004.08
2022-09-26T01:28:55.285Z,1004.06
2022-09-26T01:29:55.311Z,1004.06
2022-09-26T01:30:55.392Z,1004.03
2022-09-26T01:31:55.364Z,1004.01
2022-09-26T01:37:29.649Z,1003.95
2022-09-26T01:38:29.673Z,1004.01
2022-09-26T01:39:29.697Z,1004.00
2022-09-26T01:40:29.787Z,1003.97
2022-09-26T01:41:29.746Z,1003.99
2022-09-26T01:42:29.773Z,1003.98
2022-09-26T01:43:29.816Z,1003.98
2022-09-26T01:44:29.828Z,1003.95
2022-09-26T01:45:29.945Z,1003.94
2022-09-26T01:46:29.879Z,1003.94
2022-09-26T01:47:29.899Z,1003.93
2022-09-26T01:48:29.925Z,1003.88
2022-09-26T01:49:29.949Z,1003.92
2022-09-26T01:50:29.983Z,1003.84
2022-09-26T01:51:30.002Z,1003.82
2022-09-26T01:52:30.027Z,1003.79
2022-09-26T01:53:30.058Z,1003.80
2022-09-26T01:54:30.079Z,1003.77
2022-09-26T01:55:30.103Z,1003.73
2022-09-26T01:56:30.128Z,1003.80
2022-09-26T01:57:30.153Z,1003.78
2022-09-26T01:58:30.179Z,1003.75
2022-09-26T01:59:30.224Z,1003.74
2022-09-26T02:00:30.232Z,1003.77
2022-09-26T02:01:30.359Z,1003.71
2022-09-26T02:02:30.343Z,1003.69
2022-09-26T02:03:30.308Z,1003.68
2022-09-26T02:04:30.332Z,1003.64
2022-09-26T02:05:30.357Z,1003.60
2022-09-26T02:06:30.384Z,1003.59
2022-09-26T02:07:30.408Z,1003.60
2022-09-26T02:08:30.432Z,1003.67
2022-09-26T02:09:30.458Z,1003.63
2022-09-26T02:10:30.485Z,1003.57
2022-09-26T02:11:30.511Z,1003.54
2022-09-26T02:12:30.536Z,1003.55
2022-09-26T02:13:30.559Z,1003.54
2022-09-26T02:14:30.589Z,1003.44
2022-09-26T02:15:30.713Z,1003.44
2022-09-26T02:16:30.721Z,1003.51
2022-09-26T02:17:30.662Z,1003.48
2022-09-26T02:18:30.689Z,1003.50
2022-09-26T02:19:30.715Z,1003.51
2022-09-26T02:20:30.739Z,1003.50
2022-09-26T02:21:30.763Z,1003.48
2022-09-26T02:22:30.790Z,1003.44
2022-09-26T02:23:30.815Z,1003.46
2022-09-26T02:24:30.840Z,1003.40
2022-09-26T02:25:30.867Z,1003.37
2022-09-26T02:26:30.893Z,1003.34
2022-09-26T02:27:30.917Z,1003.33
2022-09-26T02:28:30.946Z,1003.28
2022-09-26T02:29:30.966Z,1003.23
2022-09-26T02:30:30.994Z,1003.20
2022-09-26T02:31:31.133Z,1003.19
2022-09-26T02:32:31.045Z,1003.17
2022-09-26T02:33:31.069Z,1003.21
2022-09-26T02:34:31.105Z,1003.21
2022-09-26T02:35:31.120Z,1003.13
2022-09-26T02:36:31.150Z,1003.19
2022-09-26T02:37:31.171Z,1003.17
2022-09-26T02:38:31.197Z,1003.15
2022-09-26T02:39:31.222Z,1003.14
2022-09-26T02:40:31.332Z,1003.14
2022-09-26T02:41:31.273Z,1003.13
2022-09-26T02:42:31.301Z,1003.12
2022-09-26T02:43:31.325Z,1003.05
2022-09-26T02:44:31.348Z,1003.05
2022-09-26T02:45:31.416Z,1003.02
2022-09-26T02:46:31.402Z,1003.01
2022-09-26T02:47:31.445Z,1003.03
2022-09-26T02:48:31.452Z,1003.10
2022-09-26T02:49:31.477Z,1003.07
2022-09-26T02:50:33.537Z,1003.03
2022-09-26T02:51:31.534Z,1003.00
2022-09-26T02:52:31.556Z,1003.04
2022-09-26T02:53:31.735Z,1003.01
2022-09-26T02:54:31.606Z,1003.04
2022-09-26T02:55:31.631Z,1002.97
2022-09-26T02:56:31.657Z,1002.96
2022-09-26T02:57:31.730Z,1002.95
2022-09-26T02:58:31.709Z,1002.90
2022-09-26T02:59:31.733Z,1002.93
2022-09-26T03:00:31.758Z,1002.88
2022-09-26T03:01:31.945Z,1002.91
2022-09-26T03:02:31.812Z,1002.89
2022-09-26T03:03:31.925Z,1002.83
2022-09-26T03:04:31.933Z,1002.81
2022-09-26T03:05:31.886Z,1002.82
2022-09-26T03:06:31.914Z,1002.74
2022-09-26T03:07:31.937Z,1002.71
2022-09-26T03:08:31.964Z,1002.71
2022-09-26T03:09:31.989Z,1002.68
2022-09-26T03:10:32.013Z,1002.69
2022-09-26T03:11:32.041Z,1002.63
2022-09-26T03:13:29.647Z,1002.58
2022-09-26T03:14:29.673Z,1002.58
2022-09-26T03:15:29.699Z,1002.50
2022-09-26T03:16:29.818Z,1002.52
2022-09-26T03:18:12.359Z,1002.50
2022-09-26T03:19:16.460Z,1002.41
2022-09-26T03:20:12.408Z,1002.37
2022-09-26T03:21:12.437Z,1002.37
2022-09-26T03:22:12.459Z,1002.36
2022-09-26T03:23:12.486Z,1002.33
2022-09-26T03:24:12.511Z,1002.35
2022-09-26T03:25:12.535Z,1002.34
2022-09-26T03:26:12.562Z,1002.33
2022-09-26T03:27:12.588Z,1002.29
2022-09-26T03:28:12.613Z,1002.28
2022-09-26T03:29:12.639Z,1002.31
2022-09-26T03:30:12.665Z,1002.29
2022-09-26T03:31:12.803Z,1002.25
2022-09-26T03:32:12.749Z,1002.31
2022-09-26T03:33:12.740Z,1002.26
2022-09-26T03:34:12.765Z,1002.23
2022-09-26T03:35:12.895Z,1002.21
2022-09-26T03:36:12.817Z,1002.18
2022-09-26T03:37:12.844Z,1002.17
2022-09-26T03:38:14.510Z,1002.16
2022-09-26T03:39:13.036Z,1002.15
2022-09-26T03:40:13.078Z,1002.09
2022-09-26T03:41:12.945Z,1002.09
2022-09-26T03:42:12.970Z,1002.10
2022-09-26T03:43:12.998Z,1002.14
2022-09-26T03:44:13.022Z,1002.13
2022-09-26T03:45:13.048Z,1002.10
2022-09-26T03:46:13.130Z,1002.07
2022-09-26T03:47:13.100Z,1002.07
2022-09-26T03:48:13.125Z,1002.02
2022-09-26T03:49:13.294Z,1002.04
2022-09-26T03:50:13.176Z,1001.98
2022-09-26T03:51:13.223Z,1002.01
2022-09-26T03:52:13.228Z,1002.00
2022-09-26T03:53:13.254Z,1001.94
2022-09-26T03:54:13.278Z,1001.92
2022-09-26T03:55:13.305Z,1001.88
2022-09-26T03:58:39.206Z,1001.82
2022-09-26T03:59:39.236Z,1001.82
2022-09-26T04:00:39.293Z,1001.75
2022-09-26T04:01:39.291Z,1001.78
2022-09-26T04:02:39.355Z,1001.73
2022-09-26T04:03:39.337Z,1001.67
2022-09-26T04:04:39.361Z,1001.65
2022-09-26T04:05:39.387Z,1001.63
2022-09-26T04:06:39.516Z,1001.62
2022-09-26T04:07:39.439Z,1001.57
2022-09-26T04:08:39.465Z,1001.60
2022-09-26T04:09:39.491Z,1001.61
2022-09-26T04:10:39.516Z,1001.60
2022-09-26T04:11:39.542Z,1001.54
2022-09-26T04:12:39.566Z,1001.52
2022-09-26T04:13:51.194Z,1001.53
2022-09-26T04:14:39.621Z,1001.49
2022-09-26T04:15:39.645Z,1001.53
2022-09-26T04:16:39.738Z,1001.50
2022-09-26T04:17:39.696Z,1001.48
2022-09-26T04:18:39.723Z,1001.46
2022-09-26T04:19:39.750Z,1001.46
2022-09-26T04:20:39.773Z,1001.43
2022-09-26T04:21:39.799Z,1001.42
2022-09-26T04:22:39.843Z,1001.36
2022-09-26T04:23:39.851Z,1001.37
2022-09-26T04:24:39.876Z,1001.34
2022-09-26T04:25:39.903Z,1001.22
2022-09-26T04:26:39.925Z,1001.24
2022-09-26T04:27:39.956Z,1001.19
2022-09-26T04:28:39.979Z,1001.18
2022-09-26T04:29:40.005Z,1001.18
2022-09-26T04:30:40.039Z,1001.14
2022-09-26T04:31:40.101Z,1001.13
2022-09-26T04:32:40.083Z,1001.12
2022-09-26T04:33:40.108Z,1001.12
2022-09-26T04:34:40.133Z,1001.14
2022-09-26T04:35:40.161Z,1001.08
2022-09-26T04:36:40.184Z,1001.09
2022-09-26T04:37:40.209Z,1001.08
2022-09-26T04:38:40.338Z,1001.07
2022-09-26T04:39:40.311Z,1001.04
2022-09-26T04:40:42.821Z,1001.08
2022-09-26T04:41:40.317Z,1001.03
2022-09-26T04:42:40.488Z,1001.01
2022-09-26T04:43:40.364Z,1001.04
2022-09-26T04:44:40.390Z,1000.98
2022-09-26T04:45:40.491Z,1000.96
2022-09-26T04:46:40.441Z,1000.96
2022-09-26T04:47:40.468Z,1000.93
2022-09-26T04:48:40.491Z,1000.94
2022-09-26T04:49:40.517Z,1000.92
2022-09-26T04:50:40.543Z,1000.92
2022-09-26T04:51:40.570Z,1000.88
2022-09-26T04:52:40.594Z,1000.88
2022-09-26T04:53:40.622Z,1000.83
2022-09-26T04:54:40.664Z,1000.83
2022-09-26T04:55:40.671Z,1000.83
2022-09-26T04:56:40.697Z,1000.85
2022-09-26T04:57:40.723Z,1000.83
2022-09-26T04:58:40.798Z,1000.80
2022-09-26T04:59:40.774Z,1000.79
2022-09-26T05:00:40.890Z,1000.83
2022-09-26T05:01:40.861Z,1000.80
2022-09-26T05:02:40.877Z,1000.82
2022-09-26T05:03:40.877Z,1000.80
2022-09-26T05:04:40.902Z,1000.82
2022-09-26T05:05:40.927Z,1000.74
2022-09-26T05:06:40.952Z,1000.77
2022-09-26T05:07:40.982Z,1000.77
2022-09-26T05:08:41.003Z,1000.70
2022-09-26T05:09:41.030Z,1000.73
2022-09-26T05:10:41.157Z,1000.67
2022-09-26T05:11:41.080Z,1000.66
2022-09-26T05:12:41.105Z,1000.69
2022-09-26T05:13:41.131Z,1000.68
2022-09-26T05:14:41.158Z,1000.66
2022-09-26T05:15:41.186Z,1000.65
2022-09-26T05:16:41.238Z,1000.65
2022-09-26T05:17:41.235Z,1000.67
2022-09-26T05:18:41.258Z,1000.59
2022-09-26T05:19:41.289Z,1000.65
2022-09-26T05:20:41.311Z,1000.59
2022-09-26T05:21:41.335Z,1000.63
2022-09-26T05:22:41.363Z,1000.60
2022-09-26T05:23:44.744Z,1000.64
2022-09-26T05:24:41.418Z,1000.55
2022-09-26T05:25:41.439Z,1000.55
2022-09-26T05:26:41.480Z,1000.56
2022-09-26T05:27:41.490Z,1000.54
2022-09-26T05:28:41.519Z,1000.54
2022-09-26T05:29:41.542Z,1000.58
2022-09-26T05:30:41.566Z,1000.57
2022-09-26T05:31:41.628Z,1000.55
2022-09-26T05:32:41.617Z,1000.59
2022-09-26T05:33:41.643Z,1000.54
2022-09-26T05:34:41.668Z,1000.55
2022-09-26T05:35:41.695Z,1000.54
2022-09-26T05:36:41.720Z,1000.48
2022-09-26T05:37:41.751Z,1000.51
2022-09-26T05:38:41.770Z,1000.52
2022-09-26T05:39:42.749Z,1000.43
2022-09-26T05:40:41.881Z,1000.49
2022-09-26T05:41:41.846Z,1000.46
2022-09-26T05:42:41.893Z,1000.45
2022-09-26T05:43:41.900Z,1000.42
2022-09-26T05:44:41.924Z,1000.47
2022-09-26T05:45:41.950Z,1000.45
2022-09-26T05:46:42.105Z,1000.44
2022-09-26T05:47:42.001Z,1000.42
2022-09-26T05:48:42.025Z,1000.39
2022-09-26T05:49:42.052Z,1000.43
2022-09-26T05:50:43.745Z,1000.41
2022-09-26T05:51:42.104Z,1000.38
2022-09-26T05:52:42.130Z,1000.38
2022-09-26T05:53:42.154Z,1000.37
2022-09-26T05:54:42.178Z,1000.35
2022-09-26T05:55:42.205Z,1000.30
2022-09-26T05:56:42.229Z,1000.35
2022-09-26T05:57:42.255Z,1000.37
2022-09-26T05:58:42.302Z,1000.39
2022-09-26T05:59:42.309Z,1000.27
2022-09-26T06:00:42.402Z,1000.31
2022-09-26T06:01:42.430Z,1000.32
2022-09-26T06:02:42.414Z,1000.27
2022-09-26T06:03:42.409Z,1000.30
2022-09-26T06:04:42.432Z,1000.23
2022-09-26T06:05:42.537Z,1000.29
2022-09-26T06:06:42.487Z,1000.22
2022-09-26T06:07:42.515Z,1000.18
2022-09-26T06:08:42.544Z,1000.23
2022-09-26T06:09:42.562Z,1000.20
2022-09-26T06:10:42.587Z,1000.15
2022-09-26T06:11:42.613Z,1000.09
2022-09-26T06:12:43.938Z,1000.12
2022-09-26T06:13:42.665Z,1000.16
2022-09-26T06:14:42.710Z,1000.11
2022-09-26T06:15:42.717Z,1000.10
2022-09-26T06:16:42.778Z,1000.10
2022-09-26T06:17:42.767Z,1000.06
2022-09-26T06:18:42.792Z,1000.01
2022-09-26T06:19:42.820Z,1000.00
2022-09-26T06:20:42.843Z,1000.00
2022-09-26T06:21:42.870Z,999.97
2022-09-26T06:22:42.893Z,999.99
2022-09-26T06:23:42.924Z,1000.01
2022-09-26T06:24:42.947Z,999.95
2022-09-26T06:25:42.974Z,999.98
2022-09-26T06:26:43.000Z,999.95
2022-09-26T06:27:43.025Z,999.90
2022-09-26T06:28:43.050Z,999.91
2022-09-26T06:29:43.076Z,999.84
2022-09-26T06:30:43.122Z,999.84
2022-09-26T06:31:43.183Z,999.81
2022-09-26T06:32:43.155Z,999.85
2022-09-26T06:33:43.182Z,999.81
2022-09-26T06:34:43.205Z,999.80
2022-09-26T06:35:43.233Z,999.74
2022-09-26T06:36:43.257Z,999.73
2022-09-26T06:37:43.283Z,999.74
2022-09-26T06:38:43.310Z,999.74
2022-09-26T06:39:43.336Z,999.71
2022-09-26T06:40:43.383Z,999.72
2022-09-26T06:41:43.394Z,999.70
2022-09-26T06:42:43.411Z,999.72
2022-09-26T06:43:43.439Z,999.66
2022-09-26T06:44:43.465Z,999.63
2022-09-26T06:45:43.491Z,999.64
2022-09-26T06:46:43.615Z,999.60
2022-09-26T06:47:43.543Z,999.65
2022-09-26T06:48:43.568Z,999.55
2022-09-26T06:49:43.596Z,999.55
2022-09-26T06:50:43.627Z,999.54
2022-09-26T06:51:43.648Z,999.48
2022-09-26T06:52:43.676Z,999.52
2022-09-26T06:53:43.700Z,999.51
2022-09-26T06:54:43.725Z,999.47
2022-09-26T06:55:43.754Z,999.48
2022-09-26T06:56:43.779Z,999.45
2022-09-26T06:57:43.817Z,999.47
2022-09-26T06:58:43.834Z,999.50
2022-09-26T06:59:43.859Z,999.46
2022-09-26T07:00:44.085Z,999.39
2022-09-26T07:01:44.073Z,999.37
2022-09-26T07:02:44.066Z,999.39
2022-09-26T07:03:46.008Z,999.33
2022-09-26T07:04:43.990Z,999.32
2022-09-26T07:05:44.019Z,999.27
2022-09-26T07:06:44.046Z,999.24
2022-09-26T07:07:44.072Z,999.26
2022-09-26T07:09:01.465Z,999.24
2022-09-26T07:09:44.126Z,999.22
2022-09-26T07:10:44.169Z,999.24
2022-09-26T07:12:12.480Z,999.15
2022-09-26T07:12:44.203Z,999.17
2022-09-26T07:13:44.232Z,999.17
2022-09-26T07:14:44.257Z,999.15
2022-09-26T07:15:44.320Z,999.12
2022-09-26T07:16:44.312Z,999.04
2022-09-26T07:17:44.340Z,999.07
2022-09-26T07:18:44.450Z,999.09
2022-09-26T07:19:44.396Z,999.06
2022-09-26T07:20:44.419Z,999.08
2022-09-26T07:21:44.448Z,999.05
2022-09-26T07:22:44.502Z,999.04
2022-09-26T07:23:44.501Z,999.02
2022-09-26T07:24:44.528Z,999.01
2022-09-26T07:25:44.554Z,998.98
2022-09-26T07:26:44.581Z,999.03
2022-09-26T07:27:44.615Z,998.98
2022-09-26T07:28:44.639Z,998.97
2022-09-26T07:29:44.664Z,999.01
2022-09-26T07:30:44.696Z,998.93
2022-09-26T07:31:44.837Z,998.91
2022-09-26T07:32:44.743Z,999.00
2022-09-26T07:33:44.771Z,998.93
2022-09-26T07:34:44.814Z,998.94
2022-09-26T07:35:44.824Z,998.99
2022-09-26T07:36:44.874Z,999.01
2022-09-26T07:37:44.880Z,998.99
2022-09-26T07:38:44.906Z,999.02
2022-09-26T07:39:44.933Z,998.94
2022-09-26T07:40:45.061Z,998.91
2022-09-26T07:41:45.959Z,998.94
2022-09-26T07:42:58.417Z,998.87
2022-09-26T07:45:45.100Z,998.83
2022-09-26T07:46:45.194Z,998.79
2022-09-26T07:47:45.152Z,998.80
2022-09-26T07:48:45.176Z,998.79
2022-09-26T07:49:45.204Z,998.81
2022-09-26T07:50:45.382Z,998.82
2022-09-26T07:51:45.259Z,998.78
2022-09-26T07:52:45.285Z,998.78
2022-09-26T07:53:45.316Z,998.77
2022-09-26T07:54:45.338Z,998.86
2022-09-26T07:55:45.367Z,998.78
2022-09-26T07:56:45.394Z,998.77
2022-09-26T07:57:45.421Z,998.76
2022-09-26T07:58:45.493Z,998.71
2022-09-26T07:59:45.481Z,998.80
2022-09-26T08:00:45.502Z,998.79
2022-09-26T08:01:45.581Z,998.74
2022-09-26T08:02:45.613Z,998.73
2022-09-26T08:03:45.586Z,998.67
2022-09-26T08:04:45.611Z,998.71
2022-09-26T08:05:45.638Z,998.70
2022-09-26T08:06:45.682Z,998.67
2022-09-26T08:07:45.691Z,998.67
2022-09-26T08:08:45.720Z,998.68
2022-09-26T08:09:45.746Z,998.61
2022-09-26T08:10:45.771Z,998.64
2022-09-26T08:11:45.800Z,998.61
2022-09-26T08:12:45.842Z,998.64
2022-09-26T08:13:45.856Z,998.61
2022-09-26T08:14:45.883Z,998.61
2022-09-26T08:15:45.933Z,998.58
2022-09-26T08:16:45.939Z,998.58
2022-09-26T08:17:45.961Z,998.64
2022-09-26T08:18:45.993Z,998.61
2022-09-26T08:19:46.017Z,998.55
2022-09-26T08:20:46.048Z,998.57
2022-09-26T08:21:46.072Z,998.60
2022-09-26T08:22:46.131Z,998.56
2022-09-26T08:23:46.127Z,998.58
2022-09-26T08:24:46.155Z,998.61
2022-09-26T08:25:46.180Z,998.60
2022-09-26T08:26:46.210Z,998.58
2022-09-26T08:27:46.238Z,998.59
2022-09-26T08:28:46.266Z,998.54
2022-09-26T08:29:46.290Z,998.55
2022-09-26T08:30:46.318Z,998.48
2022-09-26T08:31:46.408Z,998.56
2022-09-26T08:32:46.375Z,998.54
2022-09-26T08:33:46.398Z,998.51
2022-09-26T08:34:46.429Z,998.57
2022-09-26T08:35:46.455Z,998.53
2022-09-26T08:36:46.482Z,998.50
2022-09-26T08:37:46.508Z,998.54
2022-09-26T08:38:46.556Z,998.50
2022-09-26T08:39:46.564Z,998.54
2022-09-26T08:40:46.668Z,998.50
2022-09-26T08:41:46.618Z,998.47
2022-09-26T08:42:46.647Z,998.56
2022-09-26T08:43:46.673Z,998.52
2022-09-26T08:44:46.701Z,998.57
2022-09-26T08:45:47.927Z,998.54
2022-09-26T08:46:46.854Z,998.54
2022-09-26T08:47:46.780Z,998.53
2022-09-26T08:48:46.810Z,998.54
2022-09-26T08:49:46.835Z,998.57
2022-09-26T08:50:46.863Z,998.57
2022-09-26T08:51:46.893Z,998.56
2022-09-26T08:52:46.921Z,998.53
2022-09-26T08:53:46.944Z,998.56
2022-09-26T08:54:46.990Z,998.57
2022-09-26T08:55:46.998Z,998.57
2022-09-26T08:56:47.026Z,998.53
2022-09-26T08:57:47.057Z,998.53
2022-09-26T08:58:47.078Z,998.59
2022-09-26T08:59:47.106Z,998.59
2022-09-26T09:00:47.134Z,998.50
2022-09-26T09:01:47.408Z,998.54
2022-09-26T09:02:47.342Z,998.54
2022-09-26T09:03:47.213Z,998.52
2022-09-26T09:04:53.007Z,998.48
2022-09-26T09:05:47.267Z,998.52
2022-09-26T09:06:47.294Z,998.50
2022-09-26T09:07:47.321Z,998.51
2022-09-26T09:08:47.349Z,998.51
2022-09-26T09:09:47.375Z,998.50
2022-09-26T09:10:47.419Z,998.53
2022-09-26T09:11:50.907Z,998.49
2022-09-26T09:12:47.456Z,998.50
2022-09-26T09:13:47.487Z,998.52
2022-09-26T09:15:02.376Z,998.49
2022-09-26T09:15:47.569Z,998.51
2022-09-26T09:16:47.563Z,998.46
2022-09-26T09:17:47.588Z,998.48
2022-09-26T09:18:47.618Z,998.42
2022-09-26T09:19:47.642Z,998.44
2022-09-26T09:20:47.672Z,998.48
2022-09-26T09:21:47.695Z,998.47
2022-09-26T09:22:47.723Z,998.39
2022-09-26T09:23:47.748Z,998.39
2022-09-26T09:24:47.779Z,998.34
2022-09-26T09:25:47.801Z,998.35
2022-09-26T09:27:55.438Z,998.31
2022-09-26T09:28:47.883Z,998.31
2022-09-26T09:29:49.624Z,998.32
2022-09-26T09:30:47.934Z,998.31
2022-09-26T09:31:48.010Z,998.31
2022-09-26T09:32:47.996Z,998.30
2022-09-26T09:33:48.014Z,998.28
2022-09-26T09:34:51.541Z,998.27
2022-09-26T09:35:48.070Z,998.27
2022-09-26T09:36:48.097Z,998.32
2022-09-26T09:37:48.121Z,998.30
2022-09-26T09:38:48.150Z,998.32
2022-09-26T09:39:48.174Z,998.29
2022-09-26T09:40:48.368Z,998.33
2022-09-26T09:41:48.228Z,998.32
2022-09-26T09:42:48.409Z,998.26
2022-09-26T09:43:48.283Z,998.31
2022-09-26T09:44:48.310Z,998.20
2022-09-26T09:45:48.333Z,998.19
2022-09-26T09:46:48.441Z,998.14
2022-09-26T09:47:48.385Z,998.18
2022-09-26T09:48:48.413Z,998.16
2022-09-26T09:49:48.440Z,998.11
2022-09-26T09:50:48.466Z,998.13
2022-09-26T09:51:48.491Z,998.08
2022-09-26T09:52:48.519Z,998.06
2022-09-26T09:53:48.542Z,998.04
2022-09-26T09:54:48.571Z,998.06
2022-09-26T09:55:48.600Z,998.03
2022-09-26T09:56:48.624Z,998.03
2022-09-26T09:57:48.650Z,998.01
2022-09-26T09:58:48.775Z,998.00
2022-09-26T09:59:48.704Z,997.97
2022-09-26T10:00:51.198Z,997.94
2022-09-26T10:01:48.754Z,997.93
2022-09-26T10:02:48.860Z,997.89
2022-09-26T10:03:48.808Z,997.86
2022-09-26T10:04:48.836Z,997.87
2022-09-26T10:05:48.863Z,997.88
2022-09-26T10:06:48.896Z,997.82
2022-09-26T10:07:48.919Z,997.80
2022-09-26T10:08:49.029Z,997.74
2022-09-26T10:09:48.969Z,997.75
2022-09-26T10:10:48.993Z,997.77
2022-09-26T10:11:52.433Z,997.72
2022-09-26T10:12:49.049Z,997.74
2022-09-26T10:13:49.072Z,997.75
2022-09-26T10:14:49.132Z,997.69
2022-09-26T10:15:49.312Z,997.71
2022-09-26T10:16:49.152Z,997.69
2022-09-26T10:18:12.741Z,997.66
2022-09-26T10:18:49.301Z,997.65
2022-09-26T10:19:49.242Z,997.69
2022-09-26T10:20:49.259Z,997.71
2022-09-26T10:21:49.282Z,997.65
2022-09-26T10:22:49.308Z,997.72
2022-09-26T10:23:49.342Z,997.65
2022-09-26T10:24:49.366Z,997.72
2022-09-26T10:25:49.398Z,997.72
2022-09-26T10:26:49.421Z,997.68
2022-09-26T10:27:49.443Z,997.70
2022-09-26T10:28:49.473Z,997.70
2022-09-26T10:29:49.495Z,997.67
2022-09-26T10:30:49.609Z,997.65
2022-09-26T10:31:49.595Z,997.68
2022-09-26T10:32:54.006Z,997.63
2022-09-26T10:33:49.601Z,997.56
2022-09-26T10:34:49.635Z,997.50
2022-09-26T10:35:49.665Z,997.49
2022-09-26T10:36:49.684Z,997.43
2022-09-26T10:37:49.707Z,997.45
2022-09-26T10:38:49.736Z,997.46
2022-09-26T10:39:49.761Z,997.49
2022-09-26T10:40:49.954Z,997.52
2022-09-26T10:41:49.814Z,997.47
2022-09-26T10:42:49.841Z,997.47
2022-09-26T10:43:49.868Z,997.45
2022-09-26T10:44:49.896Z,997.43
2022-09-26T10:45:49.921Z,997.44
2022-09-26T10:46:50.054Z,997.39
2022-09-26T10:47:49.975Z,997.44
2022-09-26T10:48:50.100Z,997.46
2022-09-26T10:49:50.027Z,997.46
2022-09-26T10:50:50.054Z,997.41
2022-09-26T10:51:50.083Z,997.37
2022-09-26T10:52:50.111Z,997.33
2022-09-26T10:53:50.133Z,997.33
2022-09-26T10:54:50.164Z,997.28
2022-09-26T10:55:50.189Z,997.26
2022-09-26T10:56:50.220Z,997.23
2022-09-26T10:57:50.243Z,997.24
2022-09-26T10:58:50.269Z,997.17
2022-09-26T10:59:50.296Z,997.16
2022-09-26T11:00:50.322Z,997.17
2022-09-26T11:01:50.480Z,997.08
2022-09-26T11:02:50.428Z,997.08
2022-09-26T11:03:50.456Z,997.05
2022-09-26T11:04:50.431Z,997.02
2022-09-26T11:05:50.455Z,997.00
2022-09-26T11:06:50.482Z,997.03
2022-09-26T11:07:50.511Z,996.98
2022-09-26T11:08:50.536Z,997.03
2022-09-26T11:09:50.614Z,996.94
2022-09-26T11:10:50.588Z,996.91
2022-09-26T11:11:50.687Z,996.96
2022-09-26T11:12:50.642Z,996.93
2022-09-26T11:13:50.667Z,996.92
2022-09-26T11:14:50.696Z,996.90
2022-09-26T11:15:50.744Z,996.87
2022-09-26T11:16:50.749Z,996.86
2022-09-26T11:17:50.926Z,996.85
2022-09-26T11:18:50.825Z,996.76
2022-09-26T11:19:54.701Z,996.74
2022-09-26T11:20:50.855Z,996.73
2022-09-26T11:21:50.880Z,996.67
2022-09-26T11:22:50.909Z,996.65
2022-09-26T11:23:50.938Z,996.60
2022-09-26T11:24:50.963Z,996.63
2022-09-26T11:25:54.474Z,996.59
2022-09-26T11:26:51.017Z,996.56
2022-09-26T11:27:51.046Z,996.55
2022-09-26T11:28:51.071Z,996.52
2022-09-26T11:29:51.096Z,996.52
2022-09-26T11:30:51.163Z,996.52
2022-09-26T11:31:51.152Z,996.54
2022-09-26T11:32:51.180Z,996.52
2022-09-26T11:33:51.208Z,996.53
2022-09-26T11:34:51.253Z,996.47
2022-09-26T11:35:51.260Z,996.47
2022-09-26T11:36:51.288Z,996.38
2022-09-26T11:37:51.313Z,996.41
2022-09-26T11:38:51.342Z,996.34
2022-09-26T11:39:51.372Z,996.33
2022-09-26T11:40:51.457Z,996.33
2022-09-26T11:41:51.425Z,996.29
2022-09-26T11:42:51.453Z,996.29
2022-09-26T11:43:51.484Z,996.26
2022-09-26T11:44:51.706Z,996.25
2022-09-26T11:45:51.531Z,996.26
2022-09-26T11:46:51.616Z,996.22
2022-09-26T11:47:51.587Z,996.19
2022-09-26T11:48:51.614Z,996.16
2022-09-26T11:49:51.645Z,996.17
2022-09-26T11:50:51.714Z,996.12
2022-09-26T11:51:51.699Z,996.07
2022-09-26T11:52:51.728Z,996.09
2022-09-26T11:53:51.749Z,996.13
2022-09-26T11:54:51.780Z,996.05
2022-09-26T11:55:51.805Z,996.10
2022-09-26T11:56:51.835Z,996.02
2022-09-26T11:57:51.860Z,996.03
2022-09-26T11:58:51.888Z,996.01
2022-09-26T11:59:51.915Z,996.04
2022-09-26T12:00:51.944Z,996.02
2022-09-26T12:01:51.972Z,995.97
2022-09-26T12:02:52.157Z,995.95
2022-09-26T12:03:52.133Z,995.95
2022-09-26T12:04:52.055Z,995.90
2022-09-26T12:05:52.080Z,995.90
2022-09-26T12:06:52.129Z,995.88
2022-09-26T12:07:52.136Z,995.87
2022-09-26T12:08:52.172Z,995.81
2022-09-26T12:09:52.191Z,995.77
2022-09-26T12:10:52.225Z,995.77
2022-09-26T12:11:52.255Z,995.77
2022-09-26T12:12:52.279Z,995.73
2022-09-26T12:13:52.343Z,995.71
2022-09-26T12:14:52.332Z,995.70
2022-09-26T12:15:52.404Z,995.63
2022-09-26T12:16:52.389Z,995.66
2022-09-26T12:17:52.415Z,995.61
2022-09-26T12:18:52.445Z,995.57
2022-09-26T12:19:52.472Z,995.54
2022-09-26T12:20:52.505Z,995.56
2022-09-26T12:21:52.532Z,995.56
2022-09-26T12:22:52.577Z,995.56
2022-09-26T12:23:52.586Z,995.57
2022-09-26T12:24:52.612Z,995.47
2022-09-26T12:25:52.640Z,995.48
2022-09-26T12:26:52.669Z,995.45
2022-09-26T12:27:52.696Z,995.43
2022-09-26T12:28:52.725Z,995.44
2022-09-26T12:29:52.753Z,995.44